sensor_id;sensor_type;location;lat;lon;timestamp;pressure;altitude;pressure_sealevel;temperature;humidity
21658;BME280;10990;48.174;9.782;2023-05-08T00:01:26;92934.97;;;15.05;100.00
21658;BME280;10990;48.174;9.782;2023-05-08T00:03:54;92941.19;;;15.11;100.00
21658;BME280;10990;48.174;9.782;2023-05-08T00:06:21;92937.72;;;15.10;100.00
21658;BME280;10990;48.174;9.782;2023-05-08T00:08:48;92936.94;;;15.10;100.00
21658;BME280;10990;48.174;9.782;2023-05-08T00:11:15;92934.00;;;15.11;100.00
21658;BME280;10990;48.174;9.782;2023-05-08T00:13:42;92947.22;;;15.06;100.00
21658;BME280;10990;48.174;9.782;2023-05-08T00:16:10;92945.63;;;15.05;100.00
21658;BME280;10990;48.174;9.782;2023-05-08T00:18:37;92946.50;;;15.11;100.00
21658;BME280;10990;48.174;9.782;2023-05-08T00:21:04;92955.69;;;15.20;100.00
21658;BME280;10990;48.174;9.782;2023-05-08T00:23:31;92956.25;;;15.22;100.00
21658;BME280;10990;48.174;9.782;2023-05-08T00:25:58;92965.78;;;15.18;100.00
21658;BME280;10990;48.174;9.782;2023-05-08T00:28:25;92971.19;;;15.06;100.00
21658;BME280;10990;48.174;9.782;2023-05-08T00:30:51;92963.78;;;15.08;100.00
21658;BME280;10990;48.174;9.782;2023-05-08T00:33:20;92959.91;;;15.16;100.00
21658;BME280;10990;48.174;9.782;2023-05-08T00:35:47;92982.31;;;15.03;100.00
21658;BME280;10990;48.174;9.782;2023-05-08T00:38:13;92981.28;;;15.04;100.00
21658;BME280;10990;48.174;9.782;2023-05-08T00:40:40;92973.13;;;15.11;100.00
21658;BME280;10990;48.174;9.782;2023-05-08T00:43:08;92968.28;;;15.08;100.00
21658;BME280;10990;48.174;9.782;2023-05-08T00:45:36;92977.50;;;15.00;100.00
21658;BME280;10990;48.174;9.782;2023-05-08T00:48:05;92960.72;;;14.99;100.00
21658;BME280;10990;48.174;9.782;2023-05-08T00:50:35;92952.91;;;15.10;100.00
21658;BME280;10990;48.174;9.782;2023-05-08T00:53:02;92942.31;;;15.15;100.00
21658;BME280;10990;48.174;9.782;2023-05-08T00:55:31;92953.22;;;15.13;100.00
21658;BME280;10990;48.174;9.782;2023-05-08T00:57:58;92959.09;;;15.15;100.00
21658;BME280;10990;48.174;9.782;2023-05-08T01:00:25;92992.47;;;14.89;100.00
21658;BME280;10990;48.174;9.782;2023-05-08T01:02:52;92982.59;;;14.85;100.00
21658;BME280;10990;48.174;9.782;2023-05-08T01:05:19;92983.56;;;14.78;100.00
21658;BME280;10990;48.174;9.782;2023-05-08T01:07:48;92979.34;;;14.83;100.00
21658;BME280;10990;48.174;9.782;2023-05-08T01:10:14;92965.88;;;14.89;100.00
21658;BME280;10990;48.174;9.782;2023-05-08T01:12:55;92960.41;;;14.96;100.00
21658;BME280;10990;48.174;9.782;2023-05-08T01:15:29;92970.31;;;14.84;100.00
21658;BME280;10990;48.174;9.782;2023-05-08T01:18:07;92971.53;;;14.76;100.00
21658;BME280;10990;48.174;9.782;2023-05-08T01:20:42;92963.06;;;14.62;100.00
21658;BME280;10990;48.174;9.782;2023-05-08T01:23:37;92952.09;;;14.59;100.00
21658;BME280;10990;48.174;9.782;2023-05-08T01:26:34;92936.50;;;14.50;100.00
21658;BME280;10990;48.174;9.782;2023-05-08T01:29:26;92923.69;;;14.47;100.00
21658;BME280;10990;48.174;9.782;2023-05-08T01:32:09;92923.31;;;14.27;100.00
21658;BME280;10990;48.174;9.782;2023-05-08T01:34:41;92900.84;;;14.18;100.00
21658;BME280;10990;48.174;9.782;2023-05-08T01:37:13;92873.47;;;14.34;100.00
21658;BME280;10990;48.174;9.782;2023-05-08T01:39:44;92848.19;;;14.31;100.00
21658;BME280;10990;48.174;9.782;2023-05-08T01:42:21;92824.44;;;14.25;100.00
21658;BME280;10990;48.174;9.782;2023-05-08T01:44:53;92812.47;;;14.27;100.00
21658;BME280;10990;48.174;9.782;2023-05-08T01:47:27;92787.53;;;14.28;100.00
21658;BME280;10990;48.174;9.782;2023-05-08T01:50:00;92766.34;;;14.33;100.00
21658;BME280;10990;48.174;9.782;2023-05-08T01:52:34;92759.31;;;14.27;100.00
21658;BME280;10990;48.174;9.782;2023-05-08T01:55:03;92734.81;;;14.42;100.00
21658;BME280;10990;48.174;9.782;2023-05-08T01:57:33;92719.28;;;14.34;100.00
21658;BME280;10990;48.174;9.782;2023-05-08T02:00:04;92712.69;;;14.37;100.00
21658;BME280;10990;48.174;9.782;2023-05-08T02:02:37;92684.13;;;14.49;100.00
21658;BME280;10990;48.174;9.782;2023-05-08T02:05:06;92687.03;;;14.47;100.00
21658;BME280;10990;48.174;9.782;2023-05-08T02:07:34;92664.41;;;14.67;100.00
21658;BME280;10990;48.174;9.782;2023-05-08T02:10:03;92651.88;;;14.89;100.00
21658;BME280;10990;48.174;9.782;2023-05-08T02:12:31;92672.00;;;14.80;100.00
21658;BME280;10990;48.174;9.782;2023-05-08T02:14:59;92678.91;;;14.76;100.00
21658;BME280;10990;48.174;9.782;2023-05-08T02:17:27;92665.53;;;14.93;100.00
21658;BME280;10990;48.174;9.782;2023-05-08T02:19:57;92672.94;;;14.91;100.00
21658;BME280;10990;48.174;9.782;2023-05-08T02:22:27;92668.59;;;15.07;100.00
21658;BME280;10990;48.174;9.782;2023-05-08T02:24:56;92668.63;;;15.12;100.00
21658;BME280;10990;48.174;9.782;2023-05-08T02:27:25;92672.34;;;15.11;100.00
21658;BME280;10990;48.174;9.782;2023-05-08T02:29:53;92677.97;;;15.14;100.00
21658;BME280;10990;48.174;9.782;2023-05-08T02:32:23;92702.50;;;14.94;100.00
21658;BME280;10990;48.174;9.782;2023-05-08T02:34:53;92687.75;;;15.09;100.00
21658;BME280;10990;48.174;9.782;2023-05-08T02:37:23;92684.91;;;15.15;100.00
21658;BME280;10990;48.174;9.782;2023-05-08T02:39:53;92696.56;;;15.09;100.00
21658;BME280;10990;48.174;9.782;2023-05-08T02:42:22;92726.16;;;14.91;100.00
21658;BME280;10990;48.174;9.782;2023-05-08T02:44:49;92699.91;;;14.99;100.00
21658;BME280;10990;48.174;9.782;2023-05-08T02:47:20;92706.66;;;15.07;100.00
21658;BME280;10990;48.174;9.782;2023-05-08T02:49:52;92713.22;;;14.99;100.00
21658;BME280;10990;48.174;9.782;2023-05-08T02:52:27;92732.03;;;14.93;100.00
21658;BME280;10990;48.174;9.782;2023-05-08T02:54:57;92728.09;;;14.95;100.00
21658;BME280;10990;48.174;9.782;2023-05-08T02:57:32;92731.53;;;14.96;100.00
21658;BME280;10990;48.174;9.782;2023-05-08T03:00:04;92740.81;;;14.93;100.00
21658;BME280;10990;48.174;9.782;2023-05-08T03:02:36;92743.00;;;14.96;100.00
21658;BME280;10990;48.174;9.782;2023-05-08T03:05:15;92760.00;;;14.95;100.00
21658;BME280;10990;48.174;9.782;2023-05-08T03:07:46;92770.34;;;14.92;100.00
21658;BME280;10990;48.174;9.782;2023-05-08T03:10:14;92770.41;;;14.97;100.00
21658;BME280;10990;48.174;9.782;2023-05-08T03:12:43;92791.09;;;14.90;100.00
21658;BME280;10990;48.174;9.782;2023-05-08T03:15:15;92800.34;;;14.87;100.00
21658;BME280;10990;48.174;9.782;2023-05-08T03:17:45;92809.56;;;14.79;100.00
21658;BME280;10990;48.174;9.782;2023-05-08T03:20:15;92827.78;;;14.71;100.00
21658;BME280;10990;48.174;9.782;2023-05-08T03:22:45;92830.16;;;14.67;100.00
21658;BME280;10990;48.174;9.782;2023-05-08T03:25:16;92825.22;;;14.76;100.00
21658;BME280;10990;48.174;9.782;2023-05-08T03:27:44;92842.63;;;14.67;100.00
21658;BME280;10990;48.174;9.782;2023-05-08T03:30:12;92847.63;;;14.63;100.00
21658;BME280;10990;48.174;9.782;2023-05-08T03:32:44;92849.41;;;14.57;100.00
21658;BME280;10990;48.174;9.782;2023-05-08T03:35:12;92855.22;;;14.54;100.00
21658;BME280;10990;48.174;9.782;2023-05-08T03:37:40;92863.06;;;14.49;100.00
21658;BME280;10990;48.174;9.782;2023-05-08T03:40:10;92852.38;;;14.61;100.00
21658;BME280;10990;48.174;9.782;2023-05-08T03:42:38;92864.16;;;14.65;100.00
21658;BME280;10990;48.174;9.782;2023-05-08T03:45:08;92870.50;;;14.47;100.00
21658;BME280;10990;48.174;9.782;2023-05-08T03:47:36;92894.84;;;14.39;100.00
21658;BME280;10990;48.174;9.782;2023-05-08T03:50:05;92882.19;;;14.46;100.00
21658;BME280;10990;48.174;9.782;2023-05-08T03:52:34;92888.38;;;14.35;100.00
21658;BME280;10990;48.174;9.782;2023-05-08T03:55:01;92894.34;;;14.42;100.00
21658;BME280;10990;48.174;9.782;2023-05-08T03:57:33;92886.31;;;14.54;100.00
21658;BME280;10990;48.174;9.782;2023-05-08T04:00:06;92904.59;;;14.50;100.00
21658;BME280;10990;48.174;9.782;2023-05-08T04:02:46;92912.00;;;14.48;100.00
21658;BME280;10990;48.174;9.782;2023-05-08T04:05:20;92929.88;;;14.36;100.00
21658;BME280;10990;48.174;9.782;2023-05-08T04:07:52;92919.88;;;14.43;100.00
21658;BME280;10990;48.174;9.782;2023-05-08T04:10:26;92933.09;;;14.38;100.00
21658;BME280;10990;48.174;9.782;2023-05-08T04:13:02;92937.84;;;14.36;100.00
21658;BME280;10990;48.174;9.782;2023-05-08T04:15:33;92942.81;;;14.32;100.00
21658;BME280;10990;48.174;9.782;2023-05-08T04:18:05;92956.97;;;14.21;100.00
21658;BME280;10990;48.174;9.782;2023-05-08T04:20:32;92943.63;;;14.33;100.00
21658;BME280;10990;48.174;9.782;2023-05-08T04:23:01;92944.06;;;14.42;100.00
21658;BME280;10990;48.174;9.782;2023-05-08T04:25:29;92944.72;;;14.49;100.00
21658;BME280;10990;48.174;9.782;2023-05-08T04:28:01;92955.50;;;14.42;100.00
21658;BME280;10990;48.174;9.782;2023-05-08T04:30:28;92966.69;;;14.44;100.00
21658;BME280;10990;48.174;9.782;2023-05-08T04:32:56;92954.66;;;14.53;100.00
21658;BME280;10990;48.174;9.782;2023-05-08T04:35:24;92963.09;;;14.50;100.00
21658;BME280;10990;48.174;9.782;2023-05-08T04:37:51;92979.09;;;14.39;100.00
21658;BME280;10990;48.174;9.782;2023-05-08T04:40:18;92974.44;;;14.46;100.00
21658;BME280;10990;48.174;9.782;2023-05-08T04:42:45;92979.09;;;14.39;100.00
21658;BME280;10990;48.174;9.782;2023-05-08T04:45:15;92971.06;;;14.50;100.00
21658;BME280;10990;48.174;9.782;2023-05-08T04:47:42;92980.88;;;14.50;100.00
21658;BME280;10990;48.174;9.782;2023-05-08T04:50:10;93001.00;;;14.29;100.00
21658;BME280;10990;48.174;9.782;2023-05-08T04:52:36;93002.00;;;14.40;100.00
21658;BME280;10990;48.174;9.782;2023-05-08T04:55:04;93001.19;;;14.39;100.00
21658;BME280;10990;48.174;9.782;2023-05-08T04:57:34;92992.84;;;14.35;100.00
21658;BME280;10990;48.174;9.782;2023-05-08T05:00:00;92989.81;;;14.44;100.00
21658;BME280;10990;48.174;9.782;2023-05-08T05:02:30;92994.34;;;14.43;100.00
21658;BME280;10990;48.174;9.782;2023-05-08T05:04:57;92987.59;;;14.52;100.00
21658;BME280;10990;48.174;9.782;2023-05-08T05:07:26;93002.09;;;14.45;100.00
21658;BME280;10990;48.174;9.782;2023-05-08T05:09:53;92992.34;;;14.50;100.00
21658;BME280;10990;48.174;9.782;2023-05-08T05:12:20;92990.97;;;14.48;100.00
21658;BME280;10990;48.174;9.782;2023-05-08T05:14:46;92996.53;;;14.46;100.00
21658;BME280;10990;48.174;9.782;2023-05-08T05:17:13;93003.09;;;14.55;100.00
21658;BME280;10990;48.174;9.782;2023-05-08T05:19:41;93008.69;;;14.42;100.00
21658;BME280;10990;48.174;9.782;2023-05-08T05:22:08;93009.59;;;14.48;100.00
21658;BME280;10990;48.174;9.782;2023-05-08T05:24:35;93002.06;;;14.56;100.00
21658;BME280;10990;48.174;9.782;2023-05-08T05:27:04;92994.59;;;14.70;100.00
21658;BME280;10990;48.174;9.782;2023-05-08T05:29:30;93007.47;;;14.62;100.00
21658;BME280;10990;48.174;9.782;2023-05-08T05:31:58;93016.00;;;14.64;100.00
21658;BME280;10990;48.174;9.782;2023-05-08T05:34:24;93010.94;;;14.62;100.00
21658;BME280;10990;48.174;9.782;2023-05-08T05:36:53;93016.00;;;14.64;100.00
21658;BME280;10990;48.174;9.782;2023-05-08T05:39:20;93024.22;;;14.62;100.00
21658;BME280;10990;48.174;9.782;2023-05-08T05:41:47;93023.69;;;14.77;100.00
21658;BME280;10990;48.174;9.782;2023-05-08T05:44:14;93023.09;;;14.75;100.00
21658;BME280;10990;48.174;9.782;2023-05-08T05:46:41;93023.28;;;14.85;100.00
21658;BME280;10990;48.174;9.782;2023-05-08T05:49:08;93026.66;;;14.80;100.00
21658;BME280;10990;48.174;9.782;2023-05-08T05:51:36;93029.72;;;14.89;100.00
21658;BME280;10990;48.174;9.782;2023-05-08T05:54:04;93030.63;;;14.95;100.00
21658;BME280;10990;48.174;9.782;2023-05-08T05:56:31;93055.38;;;14.78;100.00
21658;BME280;10990;48.174;9.782;2023-05-08T05:58:58;93046.13;;;14.81;100.00
21658;BME280;10990;48.174;9.782;2023-05-08T06:01:25;93043.78;;;14.85;100.00
21658;BME280;10990;48.174;9.782;2023-05-08T06:03:53;93040.16;;;15.08;100.00
21658;BME280;10990;48.174;9.782;2023-05-08T06:06:20;93044.44;;;15.09;100.00
21658;BME280;10990;48.174;9.782;2023-05-08T06:08:47;93077.44;;;15.08;100.00
21658;BME280;10990;48.174;9.782;2023-05-08T06:11:15;93083.63;;;14.96;100.00
21658;BME280;10990;48.174;9.782;2023-05-08T06:13:42;93096.03;;;14.91;100.00
21658;BME280;10990;48.174;9.782;2023-05-08T06:16:09;93101.75;;;14.83;100.00
21658;BME280;10990;48.174;9.782;2023-05-08T06:18:36;93105.19;;;14.83;100.00
21658;BME280;10990;48.174;9.782;2023-05-08T06:21:03;93107.69;;;14.73;100.00
21658;BME280;10990;48.174;9.782;2023-05-08T06:23:30;93093.06;;;14.87;100.00
21658;BME280;10990;48.174;9.782;2023-05-08T06:25:57;93096.94;;;14.96;100.00
21658;BME280;10990;48.174;9.782;2023-05-08T06:28:25;93111.09;;;14.85;100.00
21658;BME280;10990;48.174;9.782;2023-05-08T06:30:52;93104.03;;;14.91;100.00
21658;BME280;10990;48.174;9.782;2023-05-08T06:33:19;93103.63;;;14.99;100.00
21658;BME280;10990;48.174;9.782;2023-05-08T06:35:46;93111.84;;;14.97;100.00
21658;BME280;10990;48.174;9.782;2023-05-08T06:38:13;93123.47;;;15.08;100.00
21658;BME280;10990;48.174;9.782;2023-05-08T06:40:41;93111.88;;;15.14;100.00
21658;BME280;10990;48.174;9.782;2023-05-08T06:43:09;93119.63;;;15.16;100.00
21658;BME280;10990;48.174;9.782;2023-05-08T06:45:38;93129.59;;;15.09;100.00
21658;BME280;10990;48.174;9.782;2023-05-08T06:48:05;93121.81;;;15.19;100.00
21658;BME280;10990;48.174;9.782;2023-05-08T06:50:32;93140.69;;;15.17;100.00
21658;BME280;10990;48.174;9.782;2023-05-08T06:52:59;93148.13;;;15.32;100.00
21658;BME280;10990;48.174;9.782;2023-05-08T06:55:25;93189.28;;;14.96;100.00
21658;BME280;10990;48.174;9.782;2023-05-08T06:57:52;93176.34;;;15.16;100.00
21658;BME280;10990;48.174;9.782;2023-05-08T07:00:19;93188.94;;;15.21;100.00
21658;BME280;10990;48.174;9.782;2023-05-08T07:02:47;93221.13;;;14.91;100.00
21658;BME280;10990;48.174;9.782;2023-05-08T07:05:14;93215.53;;;15.04;100.00
21658;BME280;10990;48.174;9.782;2023-05-08T07:07:42;93208.91;;;15.07;100.00
21658;BME280;10990;48.174;9.782;2023-05-08T07:10:09;93221.75;;;15.10;100.00
21658;BME280;10990;48.174;9.782;2023-05-08T07:12:36;93223.16;;;15.00;100.00
21658;BME280;10990;48.174;9.782;2023-05-08T07:15:03;93227.50;;;14.90;100.00
21658;BME280;10990;48.174;9.782;2023-05-08T07:17:30;93234.13;;;14.64;100.00
21658;BME280;10990;48.174;9.782;2023-05-08T07:19:58;93196.84;;;14.87;100.00
21658;BME280;10990;48.174;9.782;2023-05-08T07:22:25;93191.66;;;14.69;100.00
21658;BME280;10990;48.174;9.782;2023-05-08T07:24:52;93160.53;;;14.81;100.00
21658;BME280;10990;48.174;9.782;2023-05-08T07:27:18;93153.94;;;14.72;100.00
21658;BME280;10990;48.174;9.782;2023-05-08T07:29:45;93141.50;;;14.61;100.00
21658;BME280;10990;48.174;9.782;2023-05-08T07:32:12;93126.00;;;14.57;100.00
21658;BME280;10990;48.174;9.782;2023-05-08T07:34:39;93120.41;;;14.30;100.00
21658;BME280;10990;48.174;9.782;2023-05-08T07:37:08;93087.31;;;14.38;100.00
21658;BME280;10990;48.174;9.782;2023-05-08T07:39:35;93054.84;;;14.36;100.00
21658;BME280;10990;48.174;9.782;2023-05-08T07:42:01;93064.16;;;14.10;100.00
21658;BME280;10990;48.174;9.782;2023-05-08T07:44:30;93036.19;;;14.07;100.00
21658;BME280;10990;48.174;9.782;2023-05-08T07:46:57;92984.13;;;14.23;100.00
21658;BME280;10990;48.174;9.782;2023-05-08T07:49:24;92948.16;;;14.32;100.00
21658;BME280;10990;48.174;9.782;2023-05-08T07:51:51;92907.44;;;14.61;100.00
21658;BME280;10990;48.174;9.782;2023-05-08T07:54:19;92893.66;;;14.64;100.00
21658;BME280;10990;48.174;9.782;2023-05-08T07:56:46;92917.63;;;14.35;100.00
21658;BME280;10990;48.174;9.782;2023-05-08T07:59:12;92907.16;;;14.45;100.00
21658;BME280;10990;48.174;9.782;2023-05-08T08:01:39;92898.34;;;14.56;100.00
21658;BME280;10990;48.174;9.782;2023-05-08T08:04:11;92924.94;;;14.56;100.00
21658;BME280;10990;48.174;9.782;2023-05-08T08:06:38;92928.75;;;14.49;100.00
21658;BME280;10990;48.174;9.782;2023-05-08T08:09:05;92925.50;;;14.59;100.00
21658;BME280;10990;48.174;9.782;2023-05-08T08:11:33;92941.53;;;14.35;100.00
21658;BME280;10990;48.174;9.782;2023-05-08T08:14:00;92933.28;;;14.48;100.00
21658;BME280;10990;48.174;9.782;2023-05-08T08:16:27;92917.53;;;14.59;100.00
21658;BME280;10990;48.174;9.782;2023-05-08T08:18:53;92925.97;;;14.55;100.00
21658;BME280;10990;48.174;9.782;2023-05-08T08:21:20;92898.31;;;14.73;100.00
21658;BME280;10990;48.174;9.782;2023-05-08T08:23:47;92915.75;;;14.64;100.00
21658;BME280;10990;48.174;9.782;2023-05-08T08:26:14;92941.38;;;14.53;100.00
21658;BME280;10990;48.174;9.782;2023-05-08T08:28:42;92927.78;;;14.38;100.00
21658;BME280;10990;48.174;9.782;2023-05-08T08:31:09;92921.91;;;14.36;100.00
21658;BME280;10990;48.174;9.782;2023-05-08T08:33:36;92891.38;;;14.72;100.00
21658;BME280;10990;48.174;9.782;2023-05-08T08:36:03;92891.31;;;14.84;100.00
21658;BME280;10990;48.174;9.782;2023-05-08T08:38:29;92915.50;;;14.66;100.00
21658;BME280;10990;48.174;9.782;2023-05-08T08:40:56;92913.31;;;14.79;100.00
21658;BME280;10990;48.174;9.782;2023-05-08T08:43:23;92943.28;;;14.75;100.00
21658;BME280;10990;48.174;9.782;2023-05-08T08:45:52;92924.53;;;14.98;100.00
21658;BME280;10990;48.174;9.782;2023-05-08T08:48:19;92924.59;;;15.04;100.00
21658;BME280;10990;48.174;9.782;2023-05-08T08:50:49;92934.69;;;15.01;100.00
21658;BME280;10990;48.174;9.782;2023-05-08T08:53:21;92921.75;;;15.49;100.00
21658;BME280;10990;48.174;9.782;2023-05-08T08:55:51;92989.59;;;15.08;100.00
21658;BME280;10990;48.174;9.782;2023-05-08T08:58:26;93001.44;;;15.17;100.00
21658;BME280;10990;48.174;9.782;2023-05-08T09:00:59;92994.97;;;15.46;100.00
21658;BME280;10990;48.174;9.782;2023-05-08T09:03:29;93034.81;;;15.58;100.00
21658;BME280;10990;48.174;9.782;2023-05-08T09:05:58;93051.59;;;16.14;100.00
21658;BME280;10990;48.174;9.782;2023-05-08T09:08:25;93089.63;;;16.10;100.00
21658;BME280;10990;48.174;9.782;2023-05-08T09:10:53;93141.94;;;16.33;100.00
21658;BME280;10990;48.174;9.782;2023-05-08T09:13:20;93150.72;;;16.94;100.00
21658;BME280;10990;48.174;9.782;2023-05-08T09:15:47;93234.00;;;16.74;100.00
21658;BME280;10990;48.174;9.782;2023-05-08T09:18:16;93296.72;;;16.55;100.00
21658;BME280;10990;48.174;9.782;2023-05-08T09:20:43;93342.97;;;16.44;100.00
21658;BME280;10990;48.174;9.782;2023-05-08T09:23:10;93351.34;;;17.03;100.00
21658;BME280;10990;48.174;9.782;2023-05-08T09:25:42;93404.59;;;17.10;100.00
21658;BME280;10990;48.174;9.782;2023-05-08T09:28:16;93489.25;;;17.09;100.00
21658;BME280;10990;48.174;9.782;2023-05-08T09:30:54;93558.53;;;17.16;100.00
21658;BME280;10990;48.174;9.782;2023-05-08T09:33:24;93575.88;;;17.64;100.00
21658;BME280;10990;48.174;9.782;2023-05-08T09:35:52;93624.16;;;17.57;100.00
21658;BME280;10990;48.174;9.782;2023-05-08T09:38:31;93656.31;;;17.96;100.00
21658;BME280;10990;48.174;9.782;2023-05-08T09:41:05;93691.44;;;17.83;100.00
21658;BME280;10990;48.174;9.782;2023-05-08T09:43:32;93743.41;;;17.75;100.00
21658;BME280;10990;48.174;9.782;2023-05-08T09:46:18;93775.56;;;17.63;100.00
21658;BME280;10990;48.174;9.782;2023-05-08T09:48:48;93800.81;;;17.84;100.00
21658;BME280;10990;48.174;9.782;2023-05-08T09:51:15;93836.75;;;17.77;100.00
21658;BME280;10990;48.174;9.782;2023-05-08T09:53:41;93866.69;;;17.50;100.00
21658;BME280;10990;48.174;9.782;2023-05-08T09:56:09;93861.13;;;17.52;100.00
21658;BME280;10990;48.174;9.782;2023-05-08T09:58:40;93874.72;;;17.50;100.00
21658;BME280;10990;48.174;9.782;2023-05-08T10:01:07;93863.44;;;17.48;100.00
21658;BME280;10990;48.174;9.782;2023-05-08T10:03:48;93900.56;;;17.33;100.00
21658;BME280;10990;48.174;9.782;2023-05-08T10:06:15;93958.88;;;17.12;100.00
21658;BME280;10990;48.174;9.782;2023-05-08T10:08:42;93977.44;;;16.53;100.00
21658;BME280;10990;48.174;9.782;2023-05-08T10:11:12;93852.28;;;16.22;100.00
21658;BME280;10990;48.174;9.782;2023-05-08T10:13:40;93742.44;;;16.13;100.00
21658;BME280;10990;48.174;9.782;2023-05-08T10:16:12;93697.44;;;15.81;100.00
21658;BME280;10990;48.174;9.782;2023-05-08T10:18:42;93626.28;;;15.70;100.00
21658;BME280;10990;48.174;9.782;2023-05-08T10:21:13;93590.56;;;15.47;100.00
21658;BME280;10990;48.174;9.782;2023-05-08T10:23:41;93559.19;;;15.50;100.00
21658;BME280;10990;48.174;9.782;2023-05-08T10:26:12;93507.75;;;15.61;100.00
21658;BME280;10990;48.174;9.782;2023-05-08T10:28:42;93435.22;;;16.11;100.00
21658;BME280;10990;48.174;9.782;2023-05-08T10:31:11;93416.38;;;16.01;100.00
21658;BME280;10990;48.174;9.782;2023-05-08T10:33:40;93412.22;;;15.93;100.00
21658;BME280;10990;48.174;9.782;2023-05-08T10:36:07;93392.53;;;15.82;100.00
21658;BME280;10990;48.174;9.782;2023-05-08T10:38:36;93351.31;;;16.02;100.00
21658;BME280;10990;48.174;9.782;2023-05-08T10:41:04;93372.13;;;15.88;100.00
21658;BME280;10990;48.174;9.782;2023-05-08T10:43:32;93379.59;;;15.62;100.00
21658;BME280;10990;48.174;9.782;2023-05-08T10:46:04;93369.38;;;15.42;100.00
21658;BME280;10990;48.174;9.782;2023-05-08T10:48:41;93312.34;;;15.55;100.00
21658;BME280;10990;48.174;9.782;2023-05-08T10:51:13;93279.66;;;15.72;100.00
21658;BME280;10990;48.174;9.782;2023-05-08T10:53:48;93290.78;;;15.68;100.00
21658;BME280;10990;48.174;9.782;2023-05-08T10:56:16;93293.75;;;15.43;100.00
21658;BME280;10990;48.174;9.782;2023-05-08T10:58:43;93281.22;;;15.15;100.00
21658;BME280;10990;48.174;9.782;2023-05-08T11:01:14;93264.53;;;15.20;100.00
21658;BME280;10990;48.174;9.782;2023-05-08T11:03:43;93257.44;;;15.25;100.00
21658;BME280;10990;48.174;9.782;2023-05-08T11:06:10;93250.88;;;15.16;100.00
21658;BME280;10990;48.174;9.782;2023-05-08T11:08:46;93228.88;;;15.21;100.00
21658;BME280;10990;48.174;9.782;2023-05-08T11:11:28;93199.22;;;15.29;100.00
21658;BME280;10990;48.174;9.782;2023-05-08T11:14:09;93183.03;;;15.19;100.00
21658;BME280;10990;48.174;9.782;2023-05-08T11:17:04;93194.66;;;14.72;100.00
21658;BME280;10990;48.174;9.782;2023-05-08T11:19:33;93160.91;;;14.73;100.00
21658;BME280;10990;48.174;9.782;2023-05-08T11:22:21;93105.44;;;15.10;100.00
21658;BME280;10990;48.174;9.782;2023-05-08T11:25:02;93106.34;;;14.87;100.00
21658;BME280;10990;48.174;9.782;2023-05-08T11:27:37;93100.69;;;14.84;100.00
21658;BME280;10990;48.174;9.782;2023-05-08T11:30:18;93086.63;;;14.71;100.00
21658;BME280;10990;48.174;9.782;2023-05-08T11:33:12;93057.63;;;14.70;100.00
21658;BME280;10990;48.174;9.782;2023-05-08T11:35:41;93043.06;;;14.61;100.00
21658;BME280;10990;48.174;9.782;2023-05-08T11:38:23;93013.44;;;14.69;100.00
21658;BME280;10990;48.174;9.782;2023-05-08T11:41:02;92967.19;;;14.87;100.00
21658;BME280;10990;48.174;9.782;2023-05-08T11:44:02;92973.63;;;14.74;100.00
21658;BME280;10990;48.174;9.782;2023-05-08T11:46:42;92947.19;;;14.67;100.00
21658;BME280;10990;48.174;9.782;2023-05-08T11:49:10;92921.78;;;14.60;100.00
21658;BME280;10990;48.174;9.782;2023-05-08T11:51:39;92882.06;;;14.70;100.00
21658;BME280;10990;48.174;9.782;2023-05-08T11:54:10;92868.34;;;14.61;100.00
21658;BME280;10990;48.174;9.782;2023-05-08T11:56:39;92854.16;;;14.55;100.00
21658;BME280;10990;48.174;9.782;2023-05-08T11:59:07;92802.22;;;14.87;100.00
21658;BME280;10990;48.174;9.782;2023-05-08T12:01:35;92816.84;;;14.67;100.00
21658;BME280;10990;48.174;9.782;2023-05-08T12:04:03;92794.44;;;14.63;100.00
21658;BME280;10990;48.174;9.782;2023-05-08T12:06:31;92762.88;;;14.72;100.00
21658;BME280;10990;48.174;9.782;2023-05-08T12:08:59;92750.66;;;14.71;100.00
21658;BME280;10990;48.174;9.782;2023-05-08T12:11:26;92716.44;;;14.79;100.00
21658;BME280;10990;48.174;9.782;2023-05-08T12:13:54;92687.09;;;14.96;100.00
21658;BME280;10990;48.174;9.782;2023-05-08T12:16:22;92729.31;;;14.66;100.00
21658;BME280;10990;48.174;9.782;2023-05-08T12:18:51;92745.69;;;14.57;100.00
21658;BME280;10990;48.174;9.782;2023-05-08T12:21:18;92721.88;;;14.68;100.00
21658;BME280;10990;48.174;9.782;2023-05-08T12:23:47;92702.06;;;14.80;100.00
21658;BME280;10990;48.174;9.782;2023-05-08T12:26:14;92709.81;;;14.60;100.00
21658;BME280;10990;48.174;9.782;2023-05-08T12:28:43;92670.41;;;14.79;100.00
21658;BME280;10990;48.174;9.782;2023-05-08T12:31:11;92658.72;;;14.80;100.00
21658;BME280;10990;48.174;9.782;2023-05-08T12:33:38;92642.44;;;14.98;100.00
21658;BME280;10990;48.174;9.782;2023-05-08T12:36:07;92624.22;;;15.17;100.00
21658;BME280;10990;48.174;9.782;2023-05-08T12:38:33;92661.56;;;14.95;100.00
21658;BME280;10990;48.174;9.782;2023-05-08T12:41:01;92686.38;;;14.79;100.00
21658;BME280;10990;48.174;9.782;2023-05-08T12:43:32;92703.94;;;14.58;100.00
21658;BME280;10990;48.174;9.782;2023-05-08T12:46:00;92657.84;;;14.74;100.00
21658;BME280;10990;48.174;9.782;2023-05-08T12:48:28;92638.19;;;14.75;100.00
21658;BME280;10990;48.174;9.782;2023-05-08T12:51:00;92667.84;;;14.45;100.00
21658;BME280;10990;48.174;9.782;2023-05-08T12:53:29;92630.03;;;14.60;100.00
21658;BME280;10990;48.174;9.782;2023-05-08T12:56:00;92657.38;;;14.39;100.00
21658;BME280;10990;48.174;9.782;2023-05-08T12:58:28;92617.78;;;14.59;100.00
21658;BME280;10990;48.174;9.782;2023-05-08T13:01:03;92598.63;;;14.57;100.00
21658;BME280;10990;48.174;9.782;2023-05-08T13:03:32;92582.91;;;14.55;100.00